createdAt,value
2023-04-17T00:00:51.712Z,19.63
2023-04-17T00:03:19.088Z,19.85
2023-04-17T00:05:46.547Z,25.20
2023-04-17T00:08:14.381Z,27.33
2023-04-17T00:10:41.672Z,21.42
2023-04-17T00:13:09.340Z,17.00
2023-04-17T00:15:36.842Z,21.05
2023-04-17T00:18:04.324Z,16.40
2023-04-17T00:20:31.433Z,16.33
2023-04-17T00:22:59.005Z,19.38
2023-04-17T00:25:26.306Z,26.23
2023-04-17T00:27:53.473Z,19.55
2023-04-17T00:30:21.329Z,15.57
2023-04-17T00:32:48.376Z,12.82
2023-04-17T00:35:15.636Z,15.95
2023-04-17T00:37:43.116Z,17.13
2023-04-17T00:40:11.744Z,21.65
2023-04-17T00:42:39.711Z,27.33
2023-04-17T00:45:10.880Z,19.75
2023-04-17T00:47:38.826Z,20.05
2023-04-17T00:50:06.870Z,15.88
2023-04-17T00:52:33.983Z,17.38
2023-04-17T00:55:01.270Z,24.92
2023-04-17T00:57:28.489Z,25.25
2023-04-17T00:59:56.990Z,21.30
2023-04-17T01:02:24.757Z,25.52
2023-04-17T01:04:52.256Z,21.42
2023-04-17T01:07:19.890Z,30.10
2023-04-17T01:09:47.161Z,26.58
2023-04-17T01:12:18.077Z,32.58
2023-04-17T01:14:45.589Z,22.23
2023-04-17T01:17:18.949Z,25.92
2023-04-17T01:22:16.203Z,27.80
2023-04-17T01:24:44.240Z,16.40
2023-04-17T01:27:13.827Z,15.60
2023-04-17T01:29:43.255Z,16.70
2023-04-17T01:32:10.454Z,13.55
2023-04-17T01:34:38.177Z,18.20
2023-04-17T01:37:05.268Z,16.48
2023-04-17T01:39:32.834Z,15.10
2023-04-17T01:41:59.981Z,20.35
2023-04-17T01:44:27.144Z,20.52
2023-04-17T01:46:54.148Z,32.85
2023-04-17T01:49:22.426Z,24.48
2023-04-17T01:51:49.945Z,18.38
2023-04-17T01:54:17.256Z,25.63
2023-04-17T01:56:45.086Z,21.10
2023-04-17T01:59:12.361Z,15.20
2023-04-17T02:01:39.720Z,21.92
2023-04-17T02:04:06.920Z,16.73
2023-04-17T02:06:34.145Z,11.60
2023-04-17T02:09:01.694Z,17.02
2023-04-17T02:11:28.770Z,19.25
2023-04-17T02:13:56.030Z,19.17
2023-04-17T02:16:23.300Z,15.00
2023-04-17T02:18:51.011Z,8.15
2023-04-17T02:21:18.400Z,10.15
2023-04-17T02:23:45.924Z,7.03
2023-04-17T02:26:13.284Z,5.47
2023-04-17T02:28:45.213Z,12.75
2023-04-17T02:31:13.021Z,10.27
2023-04-17T02:33:40.607Z,7.00
2023-04-17T02:36:10.495Z,8.27
2023-04-17T02:38:40.940Z,8.77
2023-04-17T02:41:08.566Z,3.05
2023-04-17T02:43:35.718Z,5.75
2023-04-17T02:46:03.005Z,9.27
2023-04-17T02:48:30.509Z,3.05
2023-04-17T02:50:58.701Z,8.57
2023-04-17T02:53:26.551Z,4.90
2023-04-17T02:55:53.912Z,7.07
2023-04-17T02:58:23.552Z,4.07
2023-04-17T03:00:52.256Z,13.38
2023-04-17T03:03:20.296Z,13.60
2023-04-17T03:05:47.550Z,10.70
2023-04-17T03:08:14.758Z,9.23
2023-04-17T03:10:46.933Z,9.20
2023-04-17T03:13:15.330Z,7.13
2023-04-17T03:15:42.546Z,9.75
2023-04-17T03:18:10.021Z,9.98
2023-04-17T03:20:37.336Z,11.60
2023-04-17T03:23:04.475Z,4.00
2023-04-17T03:25:31.758Z,3.85
2023-04-17T03:28:00.870Z,7.03
2023-04-17T03:30:32.712Z,5.25
2023-04-17T03:33:04.119Z,6.18
2023-04-17T03:35:32.346Z,7.40
2023-04-17T03:38:00.647Z,6.90
2023-04-17T03:40:28.044Z,4.45
2023-04-17T03:42:55.252Z,4.78
2023-04-17T03:45:24.019Z,9.48
2023-04-17T03:47:51.590Z,2.97
2023-04-17T03:50:18.843Z,4.90
2023-04-17T03:52:55.361Z,2.83
2023-04-17T03:55:25.120Z,8.15
2023-04-17T03:57:53.763Z,8.48
2023-04-17T04:00:21.457Z,11.40
2023-04-17T04:02:53.215Z,8.55
2023-04-17T04:05:25.545Z,10.00
2023-04-17T04:07:54.266Z,14.98
2023-04-17T04:10:40.085Z,9.80
2023-04-17T04:13:07.544Z,6.82
2023-04-17T04:15:35.416Z,2.85
2023-04-17T04:18:05.593Z,6.88
2023-04-17T04:20:33.000Z,15.70
2023-04-17T04:23:16.969Z,5.95
2023-04-17T04:25:45.924Z,5.00
2023-04-17T04:28:30.558Z,2.10
2023-04-17T04:30:58.475Z,4.95
2023-04-17T04:33:29.289Z,4.88
2023-04-17T04:36:01.694Z,9.80
2023-04-17T04:38:31.073Z,3.00
2023-04-17T04:41:05.764Z,9.45
2023-04-17T04:43:33.699Z,5.35
2023-04-17T04:46:02.985Z,6.05
2023-04-17T04:48:33.256Z,3.85
2023-04-17T04:51:01.012Z,6.25
2023-04-17T04:53:29.421Z,4.40
2023-04-17T04:55:58.469Z,5.82
2023-04-17T04:58:29.167Z,2.28
2023-04-17T05:01:00.437Z,4.05
2023-04-17T05:03:34.326Z,11.60
2023-04-17T05:06:03.765Z,4.72
2023-04-17T05:08:42.420Z,13.13
2023-04-17T05:11:12.088Z,8.48
2023-04-17T05:13:39.675Z,8.05
2023-04-17T05:16:13.126Z,5.68
2023-04-17T05:18:40.508Z,8.88
2023-04-17T05:21:11.156Z,3.53
2023-04-17T05:23:39.872Z,2.22
2023-04-17T05:26:07.118Z,5.40
2023-04-17T05:28:34.907Z,4.28
2023-04-17T05:31:02.685Z,5.65
2023-04-17T05:33:37.726Z,5.28
2023-04-17T05:36:07.323Z,8.88
2023-04-17T05:38:38.465Z,6.22
2023-04-17T05:41:08.163Z,4.95
2023-04-17T05:43:36.619Z,4.35
2023-04-17T05:46:03.898Z,5.95
2023-04-17T05:48:32.216Z,6.57
2023-04-17T05:50:59.657Z,5.97
2023-04-17T05:53:27.799Z,5.55
2023-04-17T05:55:58.066Z,11.98
2023-04-17T05:58:25.337Z,4.63
2023-04-17T06:00:58.303Z,5.78
2023-04-17T06:03:28.192Z,5.53
2023-04-17T06:06:22.169Z,3.28
2023-04-17T06:08:54.080Z,5.85
2023-04-17T06:11:23.045Z,6.13
2023-04-17T06:13:51.837Z,3.00
2023-04-17T06:16:19.464Z,3.55
2023-04-17T06:18:48.296Z,3.80
2023-04-17T06:21:15.662Z,6.50
2023-04-17T06:23:43.075Z,3.20
2023-04-17T06:26:12.350Z,3.95
2023-04-17T06:28:40.284Z,4.75
2023-04-17T06:31:07.752Z,4.10
2023-04-17T06:33:35.300Z,4.80
2023-04-17T06:36:02.894Z,4.40
2023-04-17T06:38:39.897Z,3.55
2023-04-17T06:41:07.479Z,4.05
2023-04-17T06:43:40.360Z,8.50
2023-04-17T06:46:14.786Z,4.55
2023-04-17T06:48:42.047Z,6.90
2023-04-17T06:51:09.166Z,10.77
2023-04-17T06:53:36.576Z,4.80
2023-04-17T06:56:04.592Z,4.60
2023-04-17T06:58:33.243Z,5.57
2023-04-17T07:01:00.445Z,4.60
2023-04-17T07:03:28.034Z,4.15
2023-04-17T07:05:55.287Z,8.23
2023-04-17T07:08:22.590Z,9.13
2023-04-17T07:10:50.225Z,10.30
2023-04-17T07:13:17.252Z,4.70
2023-04-17T07:15:44.627Z,6.05
2023-04-17T07:18:12.849Z,13.95
2023-04-17T07:20:40.348Z,6.35
2023-04-17T07:23:07.845Z,6.03
2023-04-17T07:25:34.946Z,9.50
2023-04-17T07:28:04.404Z,11.73
2023-04-17T07:30:31.690Z,5.38
2023-04-17T07:32:59.100Z,4.70
2023-04-17T07:35:26.678Z,4.60
2023-04-17T07:37:55.568Z,5.70
2023-04-17T07:40:23.029Z,2.15
2023-04-17T07:42:50.618Z,5.38
2023-04-17T07:45:18.039Z,9.20
2023-04-17T07:47:45.985Z,6.68
2023-04-17T07:50:13.341Z,6.50
2023-04-17T07:52:40.954Z,7.15
2023-04-17T07:55:08.730Z,4.90
2023-04-17T07:57:36.468Z,4.50
2023-04-17T08:00:07.692Z,2.88
2023-04-17T08:02:41.678Z,8.40
2023-04-17T08:05:09.724Z,4.88
2023-04-17T08:07:37.474Z,6.13
2023-04-17T08:10:05.569Z,3.08
2023-04-17T08:12:33.146Z,3.55
2023-04-17T08:15:00.058Z,6.15
2023-04-17T08:17:30.227Z,4.13
2023-04-17T08:19:57.791Z,5.95
2023-04-17T08:22:25.754Z,7.47
2023-04-17T08:24:57.475Z,5.47
2023-04-17T08:27:25.677Z,9.20
2023-04-17T08:29:53.244Z,5.90
2023-04-17T08:32:21.165Z,9.25
2023-04-17T08:34:48.647Z,4.68
2023-04-17T08:37:15.794Z,3.92
2023-04-17T08:39:43.050Z,2.92
2023-04-17T08:42:13.347Z,4.55
2023-04-17T08:44:43.917Z,9.60
2023-04-17T08:47:12.942Z,10.30
2023-04-17T08:49:43.761Z,7.80
2023-04-17T08:52:11.207Z,3.92
2023-04-17T08:54:39.182Z,3.53
2023-04-17T08:57:06.724Z,3.78
2023-04-17T08:59:34.153Z,8.80
2023-04-17T09:02:07.888Z,4.20
2023-04-17T09:04:39.143Z,8.32
2023-04-17T09:07:06.749Z,8.50
2023-04-17T09:09:49.866Z,6.50
2023-04-17T09:12:17.639Z,4.90
2023-04-17T09:14:45.211Z,7.43
2023-04-17T09:17:13.363Z,8.68
2023-04-17T09:20:11.627Z,7.28
2023-04-17T09:22:41.001Z,8.50
2023-04-17T09:25:18.246Z,7.00
2023-04-17T09:27:45.987Z,9.82
2023-04-17T09:30:13.500Z,12.32
2023-04-17T09:32:40.948Z,12.27
2023-04-17T09:35:08.385Z,11.75
2023-04-17T09:37:54.757Z,9.38
2023-04-17T09:40:22.932Z,13.35
2023-04-17T09:43:01.002Z,14.48
2023-04-17T09:45:36.869Z,17.33
2023-04-17T09:48:11.487Z,16.63
2023-04-17T09:50:39.241Z,18.02
2023-04-17T09:53:07.506Z,17.77
2023-04-17T09:55:36.729Z,19.05
2023-04-17T09:58:05.832Z,24.00
2023-04-17T10:00:33.160Z,13.55
2023-04-17T10:03:01.512Z,16.58
2023-04-17T10:05:31.156Z,12.32
2023-04-17T10:07:59.026Z,14.18
2023-04-17T10:10:33.817Z,16.30
2023-04-17T10:13:02.898Z,13.57
2023-04-17T10:15:30.475Z,15.13
2023-04-17T10:18:28.332Z,14.65
2023-04-17T10:20:56.424Z,14.18
2023-04-17T10:23:31.222Z,11.10
2023-04-17T10:26:20.424Z,15.48
2023-04-17T10:28:49.009Z,16.52
2023-04-17T10:31:16.339Z,16.67
2023-04-17T10:33:50.682Z,19.17
2023-04-17T10:36:40.316Z,20.30
2023-04-17T10:39:18.040Z,17.63
2023-04-17T10:42:04.731Z,21.88
2023-04-17T10:44:55.689Z,21.67
2023-04-17T10:47:23.456Z,18.20
2023-04-17T10:49:59.693Z,18.95
2023-04-17T10:52:38.141Z,17.35
2023-04-17T10:55:18.083Z,17.65
2023-04-17T10:58:12.963Z,24.25
2023-04-17T11:00:50.076Z,25.92
2023-04-17T11:03:17.530Z,32.58
2023-04-17T11:05:45.879Z,32.95
2023-04-17T11:08:13.501Z,34.60
2023-04-17T11:10:41.014Z,34.72
2023-04-17T11:13:08.504Z,38.08
2023-04-17T11:15:35.975Z,35.92
2023-04-17T11:18:03.682Z,29.70
2023-04-17T11:20:32.150Z,24.40
2023-04-17T11:23:03.636Z,24.02
2023-04-17T11:25:31.311Z,21.50
2023-04-17T11:27:59.141Z,19.67
2023-04-17T11:30:33.956Z,23.70
2023-04-17T11:33:02.875Z,24.75
2023-04-17T11:35:33.810Z,21.33
2023-04-17T11:38:14.317Z,22.13
2023-04-17T11:40:45.541Z,21.50
2023-04-17T11:43:13.518Z,21.17
2023-04-17T11:45:42.365Z,21.75
2023-04-17T11:48:11.806Z,17.73
2023-04-17T11:50:39.438Z,16.85
2023-04-17T11:53:06.604Z,15.68
2023-04-17T11:55:36.289Z,21.00
2023-04-17T11:58:06.050Z,14.68
2023-04-17T12:00:33.690Z,14.15
2023-04-17T12:03:02.170Z,10.23
2023-04-17T12:05:30.346Z,12.10
2023-04-17T12:08:02.100Z,11.20
2023-04-17T12:10:40.500Z,14.05
2023-04-17T12:13:08.897Z,22.75
2023-04-17T12:15:39.347Z,16.73
2023-04-17T12:18:08.747Z,23.50
2023-04-17T12:20:36.533Z,26.38
2023-04-17T12:23:04.096Z,21.88
2023-04-17T12:25:32.058Z,23.23
2023-04-17T12:27:59.829Z,28.80
2023-04-17T12:30:27.380Z,32.20
2023-04-17T12:32:55.072Z,22.52
2023-04-17T12:35:22.752Z,25.20
2023-04-17T12:37:51.136Z,24.45
2023-04-17T12:40:21.173Z,36.50
2023-04-17T12:42:49.922Z,35.55
2023-04-17T12:45:17.551Z,29.85
2023-04-17T12:47:44.761Z,37.78
2023-04-17T12:50:12.271Z,42.17
2023-04-17T12:52:40.182Z,47.70
2023-04-17T12:55:08.026Z,53.92
2023-04-17T12:57:36.226Z,58.13
2023-04-17T13:00:09.074Z,57.45
2023-04-17T13:02:37.269Z,62.90
2023-04-17T13:05:06.706Z,69.93
2023-04-17T13:07:34.146Z,58.60
2023-04-17T13:10:01.554Z,67.63
2023-04-17T13:12:28.961Z,65.32
2023-04-17T13:14:57.571Z,56.30
2023-04-17T13:17:25.145Z,59.63
2023-04-17T13:19:52.334Z,46.40
2023-04-17T13:22:20.691Z,40.45
2023-04-17T13:24:48.020Z,32.65
2023-04-17T13:27:15.242Z,26.15
2023-04-17T13:29:42.755Z,31.50
2023-04-17T13:32:10.081Z,26.63
2023-04-17T13:34:37.244Z,30.73
2023-04-17T13:37:04.324Z,29.75
2023-04-17T13:39:32.009Z,38.22
2023-04-17T13:41:59.253Z,31.70
2023-04-17T13:44:26.722Z,34.55
2023-04-17T13:46:54.768Z,34.95
2023-04-17T13:49:22.086Z,35.13
2023-04-17T13:51:49.411Z,23.73
2023-04-17T13:54:16.514Z,19.40
2023-04-17T13:56:45.477Z,15.57
2023-04-17T13:59:12.934Z,19.30
2023-04-17T14:01:40.288Z,17.38
2023-04-17T14:04:08.726Z,22.70
2023-04-17T14:06:36.266Z,17.80
2023-04-17T14:09:03.564Z,21.10
2023-04-17T14:11:30.751Z,23.85
2023-04-17T14:13:57.846Z,26.20
2023-04-17T14:16:25.765Z,22.25
2023-04-17T14:18:52.860Z,14.70
2023-04-17T14:21:21.761Z,19.08
2023-04-17T14:23:51.221Z,17.10
2023-04-17T14:26:18.841Z,16.33
2023-04-17T14:28:45.870Z,17.77
2023-04-17T14:31:13.217Z,13.50
2023-04-17T14:33:40.412Z,18.83
2023-04-17T14:36:08.404Z,13.82
2023-04-17T14:38:35.745Z,15.90
2023-04-17T14:41:03.735Z,15.48
2023-04-17T14:43:31.028Z,14.73
2023-04-17T14:45:58.192Z,12.05
2023-04-17T14:48:25.275Z,11.73
2023-04-17T14:50:52.433Z,11.95
2023-04-17T14:53:21.685Z,12.52
2023-04-17T14:55:49.449Z,16.98
2023-04-17T14:58:16.617Z,13.70
2023-04-17T15:00:43.883Z,15.30
2023-04-17T15:03:11.802Z,11.77
2023-04-17T15:05:39.276Z,12.43
2023-04-17T15:08:06.984Z,12.93
2023-04-17T15:10:44.269Z,9.55
2023-04-17T15:13:18.134Z,11.73
2023-04-17T15:15:45.304Z,11.95
2023-04-17T15:18:12.650Z,13.45
2023-04-17T15:20:40.484Z,13.55
2023-04-17T15:23:10.720Z,13.20
2023-04-17T15:25:38.257Z,12.73
2023-04-17T15:28:05.272Z,10.05
2023-04-17T15:30:33.278Z,12.32
2023-04-17T15:33:00.536Z,14.20
2023-04-17T15:35:27.943Z,14.25
2023-04-17T15:37:55.078Z,11.77
2023-04-17T15:40:22.531Z,11.90
2023-04-17T15:42:49.827Z,9.82
2023-04-17T15:45:17.214Z,11.73
2023-04-17T15:47:44.824Z,7.90
2023-04-17T15:50:12.280Z,8.75
2023-04-17T15:52:40.387Z,5.57
2023-04-17T15:55:08.080Z,8.43
2023-04-17T15:57:35.196Z,9.52
2023-04-17T16:00:02.415Z,8.98
2023-04-17T16:02:37.619Z,9.27
2023-04-17T16:05:05.496Z,10.07
2023-04-17T16:07:32.750Z,8.07
2023-04-17T16:10:00.205Z,10.77
2023-04-17T16:12:28.011Z,9.30
2023-04-17T16:14:55.370Z,10.85
2023-04-17T16:17:22.581Z,12.35
2023-04-17T16:19:50.689Z,11.95
2023-04-17T16:22:19.162Z,9.52
2023-04-17T16:24:46.450Z,9.10
2023-04-17T16:27:13.810Z,7.05
2023-04-17T16:29:41.951Z,8.20
2023-04-17T16:32:11.191Z,8.63
2023-04-17T16:34:38.630Z,9.23
2023-04-17T16:37:06.141Z,13.63
2023-04-17T16:39:33.395Z,9.55
2023-04-17T16:42:01.019Z,12.93
2023-04-17T16:44:28.239Z,9.23
2023-04-17T16:49:25.853Z,8.77
2023-04-17T16:51:52.973Z,9.73
2023-04-17T16:54:21.246Z,14.10
2023-04-17T16:56:48.971Z,10.57
2023-04-17T16:59:16.344Z,11.55
2023-04-17T17:01:43.549Z,8.63
2023-04-17T17:04:11.270Z,6.68
2023-04-17T17:06:38.300Z,8.45
2023-04-17T17:09:05.788Z,10.13
2023-04-17T17:11:33.239Z,8.90
2023-04-17T17:14:00.974Z,8.68
2023-04-17T17:16:28.097Z,7.47
2023-04-17T17:18:56.365Z,10.48
2023-04-17T17:21:23.396Z,9.43
2023-04-17T17:23:50.795Z,9.00
2023-04-17T17:26:18.312Z,12.38
2023-04-17T17:28:50.623Z,12.60
2023-04-17T17:31:18.025Z,13.27
2023-04-17T17:33:50.040Z,14.75
2023-04-17T17:36:17.650Z,15.45
2023-04-17T17:38:45.084Z,14.65
2023-04-17T17:41:12.476Z,15.73
2023-04-17T17:43:39.620Z,9.98
2023-04-17T17:46:06.922Z,10.68
2023-04-17T17:48:34.499Z,8.77
2023-04-17T17:51:01.582Z,6.20
2023-04-17T17:53:29.305Z,8.50
2023-04-17T17:55:56.844Z,7.55
2023-04-17T17:58:24.097Z,8.25
2023-04-17T18:00:51.324Z,9.07
2023-04-17T18:03:19.203Z,6.22
2023-04-17T18:05:46.690Z,6.40
2023-04-17T18:08:14.258Z,9.15
2023-04-17T18:10:41.721Z,7.40
2023-04-17T18:13:08.993Z,7.00
2023-04-17T18:15:36.477Z,7.07
2023-04-17T18:18:03.975Z,8.23
2023-04-17T18:20:31.833Z,6.68
2023-04-17T18:22:58.836Z,6.65
2023-04-17T18:25:25.987Z,8.25
2023-04-17T18:27:53.111Z,6.20
2023-04-17T18:30:20.531Z,8.00
2023-04-17T18:32:48.228Z,9.82
2023-04-17T18:35:15.657Z,7.25
2023-04-17T18:37:44.937Z,6.90
2023-04-17T18:40:12.707Z,9.00
2023-04-17T18:42:40.131Z,6.40
2023-04-17T18:45:07.820Z,9.73
2023-04-17T18:47:34.893Z,10.27
2023-04-17T18:50:03.775Z,7.88
2023-04-17T18:52:31.182Z,8.98
2023-04-17T18:54:58.261Z,8.68
2023-04-17T18:57:26.238Z,8.77
2023-04-17T18:59:53.599Z,16.77
2023-04-17T19:02:21.209Z,8.65
2023-04-17T19:04:48.628Z,9.43
2023-04-17T19:07:15.789Z,9.25
2023-04-17T19:09:44.439Z,8.95
2023-04-17T19:12:12.107Z,12.77
2023-04-17T19:14:39.493Z,8.13
2023-04-17T19:17:06.572Z,9.07
2023-04-17T19:19:34.174Z,9.48
2023-04-17T19:22:01.238Z,11.30
2023-04-17T19:24:28.559Z,11.32
2023-04-17T19:26:55.576Z,14.60
2023-04-17T19:29:22.959Z,15.60
2023-04-17T19:31:50.454Z,21.70
2023-04-17T19:34:17.792Z,25.95
2023-04-17T19:36:45.038Z,33.50
2023-04-17T19:39:12.494Z,31.33
2023-04-17T19:41:39.897Z,29.08
2023-04-17T19:44:07.393Z,27.13
2023-04-17T19:46:34.628Z,14.77
2023-04-17T19:49:01.712Z,12.38
2023-04-17T19:51:28.833Z,12.82
2023-04-17T19:53:56.109Z,12.52
2023-04-17T19:56:23.673Z,16.30
2023-04-17T19:58:51.366Z,11.48
2023-04-17T20:01:19.176Z,12.07
2023-04-17T20:03:46.492Z,11.73
2023-04-17T20:06:14.155Z,11.45
2023-04-17T20:08:41.354Z,14.25
2023-04-17T20:11:12.044Z,11.07
2023-04-17T20:13:39.450Z,9.70
2023-04-17T20:16:06.837Z,9.27
2023-04-17T20:18:35.150Z,11.00
2023-04-17T20:21:02.758Z,8.00
2023-04-17T20:23:30.232Z,8.52
2023-04-17T20:25:57.630Z,7.93
2023-04-17T20:28:28.273Z,7.20
2023-04-17T20:30:56.177Z,9.65
2023-04-17T20:33:23.676Z,7.45
2023-04-17T20:35:51.134Z,6.63
2023-04-17T20:38:18.548Z,6.13
2023-04-17T20:40:46.188Z,7.82
2023-04-17T20:43:13.282Z,5.72
2023-04-17T20:45:40.778Z,5.72
2023-04-17T20:48:08.053Z,6.25
2023-04-17T20:50:35.799Z,6.40
2023-04-17T20:53:03.187Z,6.65
2023-04-17T20:55:30.436Z,6.07
2023-04-17T20:57:58.092Z,5.13
2023-04-17T21:00:25.168Z,3.25
2023-04-17T21:02:52.745Z,3.97
2023-04-17T21:05:20.576Z,4.57
2023-04-17T21:07:49.478Z,4.18
2023-04-17T21:10:20.140Z,4.07
2023-04-17T21:12:47.492Z,4.03
2023-04-17T21:15:14.640Z,2.97
2023-04-17T21:17:46.345Z,3.85
2023-04-17T21:20:13.708Z,4.13
2023-04-17T21:22:40.857Z,5.55
2023-04-17T21:25:08.696Z,3.55
2023-04-17T21:27:35.992Z,3.80
2023-04-17T21:30:04.220Z,4.90
2023-04-17T21:32:31.340Z,2.20
2023-04-17T21:34:58.603Z,4.55
2023-04-17T21:37:26.003Z,3.03
2023-04-17T21:39:53.246Z,4.28
2023-04-17T21:42:20.656Z,3.25
2023-04-17T21:44:48.079Z,4.43
2023-04-17T21:47:16.240Z,4.43
2023-04-17T21:49:46.273Z,4.40
2023-04-17T21:52:14.077Z,3.40
2023-04-17T21:54:41.484Z,5.28
2023-04-17T21:57:08.707Z,3.30
2023-04-17T21:59:36.199Z,3.80
2023-04-17T22:02:03.694Z,4.65
2023-04-17T22:04:31.499Z,5.38
2023-04-17T22:06:58.776Z,6.15
2023-04-17T22:09:27.755Z,3.65
2023-04-17T22:11:57.131Z,3.63
2023-04-17T22:14:24.481Z,3.95
2023-04-17T22:16:52.771Z,6.80
2023-04-17T22:19:20.242Z,4.20
2023-04-17T22:21:47.631Z,5.07
2023-04-17T22:24:15.220Z,6.18
2023-04-17T22:26:42.799Z,3.80
2023-04-17T22:29:09.936Z,5.97
2023-04-17T22:31:37.665Z,4.43
2023-04-17T22:34:05.044Z,4.32
2023-04-17T22:36:32.455Z,4.18
2023-04-17T22:38:59.499Z,4.88
2023-04-17T22:41:26.785Z,4.03
2023-04-17T22:43:54.352Z,4.18
2023-04-17T22:46:21.411Z,4.70
2023-04-17T22:48:49.433Z,6.95
2023-04-17T22:51:17.364Z,6.03
2023-04-17T22:53:44.496Z,5.75
2023-04-17T22:56:12.226Z,7.13
2023-04-17T22:58:39.235Z,4.05
2023-04-17T23:01:06.981Z,6.55
2023-04-17T23:03:34.672Z,9.05
2023-04-17T23:06:03.145Z,4.40
2023-04-17T23:08:30.742Z,8.68
2023-04-17T23:11:02.052Z,6.88
2023-04-17T23:13:30.350Z,6.43
2023-04-17T23:15:58.049Z,5.00
2023-04-17T23:18:25.269Z,4.28
2023-04-17T23:20:52.815Z,5.93
2023-04-17T23:23:20.372Z,6.85
2023-04-17T23:25:47.388Z,9.10
2023-04-17T23:28:14.814Z,7.45
2023-04-17T23:30:41.899Z,5.88
2023-04-17T23:33:09.776Z,7.47
2023-04-17T23:35:37.014Z,6.47
2023-04-17T23:38:04.494Z,7.85
2023-04-17T23:40:32.828Z,7.63
2023-04-17T23:43:00.345Z,6.43
2023-04-17T23:45:27.438Z,7.57
2023-04-17T23:47:54.663Z,9.90
2023-04-17T23:50:21.831Z,7.03
2023-04-17T23:52:49.248Z,5.65
2023-04-17T23:55:16.706Z,8.57
2023-04-17T23:57:44.045Z,7.57
